<?xml version="1.0" encoding="UTF-8"?><gpx version="1.1" creator="Relive" xmlns="http://www.topografix.com/GPX/1/1" xmlns:xsi="http://www.w3.org/2001/XMLSchema-instance" xsi:schemaLocation="http://www.topografix.com/GPX/1/1 http://www.topografix.com/GPX/1/1/gpx.xsd http://www.garmin.com/xmlschemas/TrackPointExtension/v1 http://www.garmin.com/xmlschemas/TrackPointExtensionv1.xsd http://www.garmin.com/xmlschemas/GpxExtensions/v3 http://www.garmin.com/xmlschemas/GpxExtensionsv3.xsd" xmlns:gpxtpx="http://www.garmin.com/xmlschemas/TrackPointExtension/v1" xmlns:gpxx="http://www.garmin.com/xmlschemas/GpxExtensions/v3"><metadata><time>2023-08-11T11:36:46.000Z</time><name>Dal Pian delle Betulle all'Alpe Oro</name></metadata><trk><trkseg><trkpt lat="46.027817" lon="9.401713"><time>2023-08-11T11:36:46.000Z</time><ele>1544</ele></trkpt><trkpt lat="46.027854" lon="9.401759"><time>2023-08-11T11:37:01.000Z</time><ele>1542</ele></trkpt><trkpt lat="46.027824" lon="9.401814"><time>2023-08-11T11:37:10.000Z</time><ele>1540</ele></trkpt><trkpt lat="46.027732" lon="9.40185"><time>2023-08-11T11:37:21.000Z</time><ele>1535</ele></trkpt><trkpt lat="46.027697" lon="9.401972"><time>2023-08-11T11:37:30.000Z</time><ele>1533</ele></trkpt><trkpt lat="46.0277" lon="9.402041"><time>2023-08-11T11:37:35.000Z</time><ele>1533</ele></trkpt><trkpt lat="46.027683" lon="9.402114"><time>2023-08-11T11:37:42.000Z</time><ele>1532</ele></trkpt><trkpt lat="46.027669" lon="9.402177"><time>2023-08-11T11:37:48.000Z</time><ele>1531</ele></trkpt><trkpt lat="46.027662" lon="9.402244"><time>2023-08-11T11:37:53.000Z</time><ele>1530</ele></trkpt><trkpt lat="46.027672" lon="9.402307"><time>2023-08-11T11:37:58.000Z</time><ele>1530</ele></trkpt><trkpt lat="46.027683" lon="9.402377"><time>2023-08-11T11:38:04.000Z</time><ele>1532</ele></trkpt><trkpt lat="46.027679" lon="9.402453"><time>2023-08-11T11:38:10.000Z</time><ele>1531</ele></trkpt><trkpt lat="46.027684" lon="9.402525"><time>2023-08-11T11:38:16.000Z</time><ele>1532</ele></trkpt><trkpt lat="46.027683" lon="9.402601"><time>2023-08-11T11:38:23.000Z</time><ele>1532</ele></trkpt><trkpt lat="46.027683" lon="9.402672"><time>2023-08-11T11:38:29.000Z</time><ele>1534</ele></trkpt><trkpt lat="46.027683" lon="9.402742"><time>2023-08-11T11:38:35.000Z</time><ele>1534</ele></trkpt><trkpt lat="46.027678" lon="9.402811"><time>2023-08-11T11:38:41.000Z</time><ele>1534</ele></trkpt><trkpt lat="46.027675" lon="9.402876"><time>2023-08-11T11:38:47.000Z</time><ele>1535</ele></trkpt><trkpt lat="46.027666" lon="9.40294"><time>2023-08-11T11:38:53.000Z</time><ele>1536</ele></trkpt><trkpt lat="46.027659" lon="9.403086"><time>2023-08-11T11:39:08.000Z</time><ele>1545</ele></trkpt><trkpt lat="46.027669" lon="9.403158"><time>2023-08-11T11:39:16.000Z</time><ele>1544</ele></trkpt><trkpt lat="46.027673" lon="9.40323"><time>2023-08-11T11:39:22.000Z</time><ele>1544</ele></trkpt><trkpt lat="46.027677" lon="9.403303"><time>2023-08-11T11:39:28.000Z</time><ele>1543</ele></trkpt><trkpt lat="46.027684" lon="9.403368"><time>2023-08-11T11:39:33.000Z</time><ele>1544</ele></trkpt><trkpt lat="46.027694" lon="9.403438"><time>2023-08-11T11:39:39.000Z</time><ele>1545</ele></trkpt><trkpt lat="46.027704" lon="9.403508"><time>2023-08-11T11:39:45.000Z</time><ele>1545</ele></trkpt><trkpt lat="46.027711" lon="9.403582"><time>2023-08-11T11:39:51.000Z</time><ele>1546</ele></trkpt><trkpt lat="46.027725" lon="9.403647"><time>2023-08-11T11:39:56.000Z</time><ele>1547</ele></trkpt><trkpt lat="46.027726" lon="9.403713"><time>2023-08-11T11:40:01.000Z</time><ele>1546</ele></trkpt><trkpt lat="46.027714" lon="9.403788"><time>2023-08-11T11:40:07.000Z</time><ele>1548</ele></trkpt><trkpt lat="46.027708" lon="9.403862"><time>2023-08-11T11:40:13.000Z</time><ele>1548</ele></trkpt><trkpt lat="46.027694" lon="9.403927"><time>2023-08-11T11:40:18.000Z</time><ele>1549</ele></trkpt><trkpt lat="46.027692" lon="9.403994"><time>2023-08-11T11:40:23.000Z</time><ele>1549</ele></trkpt><trkpt lat="46.027698" lon="9.40407"><time>2023-08-11T11:40:29.000Z</time><ele>1548</ele></trkpt><trkpt lat="46.027688" lon="9.404141"><time>2023-08-11T11:40:34.000Z</time><ele>1548</ele></trkpt><trkpt lat="46.027685" lon="9.404211"><time>2023-08-11T11:40:39.000Z</time><ele>1547</ele></trkpt><trkpt lat="46.027696" lon="9.404278"><time>2023-08-11T11:40:44.000Z</time><ele>1548</ele></trkpt><trkpt lat="46.027712" lon="9.404345"><time>2023-08-11T11:40:49.000Z</time><ele>1548</ele></trkpt><trkpt lat="46.027722" lon="9.404415"><time>2023-08-11T11:40:55.000Z</time><ele>1549</ele></trkpt><trkpt lat="46.027729" lon="9.404485"><time>2023-08-11T11:41:02.000Z</time><ele>1549</ele></trkpt><trkpt lat="46.027732" lon="9.404552"><time>2023-08-11T11:41:07.000Z</time><ele>1551</ele></trkpt><trkpt lat="46.027741" lon="9.404627"><time>2023-08-11T11:41:14.000Z</time><ele>1550</ele></trkpt><trkpt lat="46.027724" lon="9.404687"><time>2023-08-11T11:41:20.000Z</time><ele>1550</ele></trkpt><trkpt lat="46.027717" lon="9.404758"><time>2023-08-11T11:41:25.000Z</time><ele>1552</ele></trkpt><trkpt lat="46.027687" lon="9.404822"><time>2023-08-11T11:41:31.000Z</time><ele>1552</ele></trkpt><trkpt lat="46.02767" lon="9.404885"><time>2023-08-11T11:41:37.000Z</time><ele>1551</ele></trkpt><trkpt lat="46.027627" lon="9.404935"><time>2023-08-11T11:41:43.000Z</time><ele>1552</ele></trkpt><trkpt lat="46.027596" lon="9.404986"><time>2023-08-11T11:41:47.000Z</time><ele>1551</ele></trkpt><trkpt lat="46.027573" lon="9.405042"><time>2023-08-11T11:41:52.000Z</time><ele>1549</ele></trkpt><trkpt lat="46.027549" lon="9.405107"><time>2023-08-11T11:41:58.000Z</time><ele>1548</ele></trkpt><trkpt lat="46.027513" lon="9.405171"><time>2023-08-11T11:42:05.000Z</time><ele>1549</ele></trkpt><trkpt lat="46.027498" lon="9.405234"><time>2023-08-11T11:42:10.000Z</time><ele>1549</ele></trkpt><trkpt lat="46.027476" lon="9.405296"><time>2023-08-11T11:42:15.000Z</time><ele>1547</ele></trkpt><trkpt lat="46.027455" lon="9.405369"><time>2023-08-11T11:42:20.000Z</time><ele>1547</ele></trkpt><trkpt lat="46.027421" lon="9.405411"><time>2023-08-11T11:42:25.000Z</time><ele>1547</ele></trkpt><trkpt lat="46.027409" lon="9.405476"><time>2023-08-11T11:42:30.000Z</time><ele>1546</ele></trkpt><trkpt lat="46.027415" lon="9.405546"><time>2023-08-11T11:42:36.000Z</time><ele>1548</ele></trkpt><trkpt lat="46.027389" lon="9.405599"><time>2023-08-11T11:42:40.000Z</time><ele>1548</ele></trkpt><trkpt lat="46.027356" lon="9.405657"><time>2023-08-11T11:42:45.000Z</time><ele>1548</ele></trkpt><trkpt lat="46.02733" lon="9.405715"><time>2023-08-11T11:42:49.000Z</time><ele>1549</ele></trkpt><trkpt lat="46.027291" lon="9.405766"><time>2023-08-11T11:42:54.000Z</time><ele>1550</ele></trkpt><trkpt lat="46.027262" lon="9.405829"><time>2023-08-11T11:43:22.000Z</time><ele>1551</ele></trkpt><trkpt lat="46.027227" lon="9.405882"><time>2023-08-11T11:43:29.000Z</time><ele>1551</ele></trkpt><trkpt lat="46.027194" lon="9.405943"><time>2023-08-11T11:43:34.000Z</time><ele>1552</ele></trkpt><trkpt lat="46.027165" lon="9.405999"><time>2023-08-11T11:43:40.000Z</time><ele>1552</ele></trkpt><trkpt lat="46.027128" lon="9.40605"><time>2023-08-11T11:43:45.000Z</time><ele>1553</ele></trkpt><trkpt lat="46.027101" lon="9.406113"><time>2023-08-11T11:43:50.000Z</time><ele>1552</ele></trkpt><trkpt lat="46.027074" lon="9.406168"><time>2023-08-11T11:43:55.000Z</time><ele>1551</ele></trkpt><trkpt lat="46.027053" lon="9.406228"><time>2023-08-11T11:44:00.000Z</time><ele>1551</ele></trkpt><trkpt lat="46.027036" lon="9.406301"><time>2023-08-11T11:44:06.000Z</time><ele>1551</ele></trkpt><trkpt lat="46.027031" lon="9.406373"><time>2023-08-11T11:44:13.000Z</time><ele>1551</ele></trkpt><trkpt lat="46.027018" lon="9.406439"><time>2023-08-11T11:44:19.000Z</time><ele>1551</ele></trkpt><trkpt lat="46.026976" lon="9.406472"><time>2023-08-11T11:44:33.000Z</time><ele>1549</ele></trkpt><trkpt lat="46.026931" lon="9.40647"><time>2023-08-11T11:44:37.000Z</time><ele>1549</ele></trkpt><trkpt lat="46.026882" lon="9.406489"><time>2023-08-11T11:44:42.000Z</time><ele>1549</ele></trkpt><trkpt lat="46.026833" lon="9.406481"><time>2023-08-11T11:44:49.000Z</time><ele>1549</ele></trkpt><trkpt lat="46.026788" lon="9.406472"><time>2023-08-11T11:44:56.000Z</time><ele>1549</ele></trkpt><trkpt lat="46.026742" lon="9.406448"><time>2023-08-11T11:45:09.000Z</time><ele>1550</ele></trkpt><trkpt lat="46.026696" lon="9.406441"><time>2023-08-11T11:45:28.000Z</time><ele>1551</ele></trkpt><trkpt lat="46.026649" lon="9.40643"><time>2023-08-11T11:45:35.000Z</time><ele>1551</ele></trkpt><trkpt lat="46.026599" lon="9.406422"><time>2023-08-11T11:45:40.000Z</time><ele>1551</ele></trkpt><trkpt lat="46.026545" lon="9.406415"><time>2023-08-11T11:45:48.000Z</time><ele>1552</ele></trkpt><trkpt lat="46.026498" lon="9.406441"><time>2023-08-11T11:45:55.000Z</time><ele>1552</ele></trkpt><trkpt lat="46.026463" lon="9.406398"><time>2023-08-11T11:46:00.000Z</time><ele>1552</ele></trkpt><trkpt lat="46.026413" lon="9.406389"><time>2023-08-11T11:46:05.000Z</time><ele>1551</ele></trkpt><trkpt lat="46.026366" lon="9.406374"><time>2023-08-11T11:46:10.000Z</time><ele>1553</ele></trkpt><trkpt lat="46.026314" lon="9.406365"><time>2023-08-11T11:46:15.000Z</time><ele>1553</ele></trkpt><trkpt lat="46.026272" lon="9.40632"><time>2023-08-11T11:46:21.000Z</time><ele>1553</ele></trkpt><trkpt lat="46.026227" lon="9.406293"><time>2023-08-11T11:46:25.000Z</time><ele>1554</ele></trkpt><trkpt lat="46.026178" lon="9.406261"><time>2023-08-11T11:46:29.000Z</time><ele>1554</ele></trkpt><trkpt lat="46.026134" lon="9.406233"><time>2023-08-11T11:46:34.000Z</time><ele>1554</ele></trkpt><trkpt lat="46.026111" lon="9.406173"><time>2023-08-11T11:46:38.000Z</time><ele>1554</ele></trkpt><trkpt lat="46.026075" lon="9.406126"><time>2023-08-11T11:46:43.000Z</time><ele>1554</ele></trkpt><trkpt lat="46.026046" lon="9.406058"><time>2023-08-11T11:46:49.000Z</time><ele>1556</ele></trkpt><trkpt lat="46.026017" lon="9.406002"><time>2023-08-11T11:46:53.000Z</time><ele>1555</ele></trkpt><trkpt lat="46.025977" lon="9.405962"><time>2023-08-11T11:46:57.000Z</time><ele>1556</ele></trkpt><trkpt lat="46.025934" lon="9.405927"><time>2023-08-11T11:47:03.000Z</time><ele>1556</ele></trkpt><trkpt lat="46.025894" lon="9.405889"><time>2023-08-11T11:47:07.000Z</time><ele>1557</ele></trkpt><trkpt lat="46.025847" lon="9.405854"><time>2023-08-11T11:47:12.000Z</time><ele>1556</ele></trkpt><trkpt lat="46.025804" lon="9.405828"><time>2023-08-11T11:47:17.000Z</time><ele>1554</ele></trkpt><trkpt lat="46.025761" lon="9.405798"><time>2023-08-11T11:47:22.000Z</time><ele>1554</ele></trkpt><trkpt lat="46.025707" lon="9.405776"><time>2023-08-11T11:47:26.000Z</time><ele>1554</ele></trkpt><trkpt lat="46.025661" lon="9.405791"><time>2023-08-11T11:47:33.000Z</time><ele>1554</ele></trkpt><trkpt lat="46.02563" lon="9.405843"><time>2023-08-11T11:47:41.000Z</time><ele>1556</ele></trkpt><trkpt lat="46.025592" lon="9.405891"><time>2023-08-11T11:47:48.000Z</time><ele>1557</ele></trkpt><trkpt lat="46.02556" lon="9.405953"><time>2023-08-11T11:47:54.000Z</time><ele>1559</ele></trkpt><trkpt lat="46.02553" lon="9.406007"><time>2023-08-11T11:47:58.000Z</time><ele>1559</ele></trkpt><trkpt lat="46.025502" lon="9.406066"><time>2023-08-11T11:48:03.000Z</time><ele>1560</ele></trkpt><trkpt lat="46.025488" lon="9.406128"><time>2023-08-11T11:48:08.000Z</time><ele>1560</ele></trkpt><trkpt lat="46.025452" lon="9.406187"><time>2023-08-11T11:48:13.000Z</time><ele>1559</ele></trkpt><trkpt lat="46.025427" lon="9.406241"><time>2023-08-11T11:48:17.000Z</time><ele>1561</ele></trkpt><trkpt lat="46.025396" lon="9.406295"><time>2023-08-11T11:48:22.000Z</time><ele>1560</ele></trkpt><trkpt lat="46.025364" lon="9.406354"><time>2023-08-11T11:48:27.000Z</time><ele>1559</ele></trkpt><trkpt lat="46.025333" lon="9.406402"><time>2023-08-11T11:48:32.000Z</time><ele>1559</ele></trkpt><trkpt lat="46.025287" lon="9.4064"><time>2023-08-11T11:48:36.000Z</time><ele>1560</ele></trkpt><trkpt lat="46.025244" lon="9.406432"><time>2023-08-11T11:48:40.000Z</time><ele>1559</ele></trkpt><trkpt lat="46.025193" lon="9.406438"><time>2023-08-11T11:48:45.000Z</time><ele>1559</ele></trkpt><trkpt lat="46.025143" lon="9.406435"><time>2023-08-11T11:48:50.000Z</time><ele>1559</ele></trkpt><trkpt lat="46.025097" lon="9.406438"><time>2023-08-11T11:48:54.000Z</time><ele>1558</ele></trkpt><trkpt lat="46.025048" lon="9.40644"><time>2023-08-11T11:49:00.000Z</time><ele>1557</ele></trkpt><trkpt lat="46.025" lon="9.40643"><time>2023-08-11T11:49:05.000Z</time><ele>1558</ele></trkpt><trkpt lat="46.024948" lon="9.406429"><time>2023-08-11T11:49:10.000Z</time><ele>1559</ele></trkpt><trkpt lat="46.024906" lon="9.406403"><time>2023-08-11T11:49:17.000Z</time><ele>1558</ele></trkpt><trkpt lat="46.024863" lon="9.406376"><time>2023-08-11T11:49:21.000Z</time><ele>1558</ele></trkpt><trkpt lat="46.024817" lon="9.406361"><time>2023-08-11T11:49:27.000Z</time><ele>1557</ele></trkpt><trkpt lat="46.024769" lon="9.406334"><time>2023-08-11T11:49:32.000Z</time><ele>1557</ele></trkpt><trkpt lat="46.024727" lon="9.40631"><time>2023-08-11T11:49:36.000Z</time><ele>1559</ele></trkpt><trkpt lat="46.024679" lon="9.406295"><time>2023-08-11T11:49:42.000Z</time><ele>1560</ele></trkpt><trkpt lat="46.02463" lon="9.406263"><time>2023-08-11T11:49:47.000Z</time><ele>1559</ele></trkpt><trkpt lat="46.024584" lon="9.40622"><time>2023-08-11T11:49:51.000Z</time><ele>1557</ele></trkpt><trkpt lat="46.024538" lon="9.406192"><time>2023-08-11T11:49:56.000Z</time><ele>1556</ele></trkpt><trkpt lat="46.024486" lon="9.406184"><time>2023-08-11T11:50:00.000Z</time><ele>1556</ele></trkpt><trkpt lat="46.024435" lon="9.406164"><time>2023-08-11T11:50:05.000Z</time><ele>1556</ele></trkpt><trkpt lat="46.024388" lon="9.406172"><time>2023-08-11T11:50:11.000Z</time><ele>1556</ele></trkpt><trkpt lat="46.024343" lon="9.40619"><time>2023-08-11T11:50:16.000Z</time><ele>1557</ele></trkpt><trkpt lat="46.024293" lon="9.406213"><time>2023-08-11T11:50:21.000Z</time><ele>1556</ele></trkpt><trkpt lat="46.024262" lon="9.406262"><time>2023-08-11T11:50:27.000Z</time><ele>1556</ele></trkpt><trkpt lat="46.024168" lon="9.406263"><time>2023-08-11T11:50:35.000Z</time><ele>1555</ele></trkpt><trkpt lat="46.024121" lon="9.406267"><time>2023-08-11T11:50:40.000Z</time><ele>1553</ele></trkpt><trkpt lat="46.024084" lon="9.406304"><time>2023-08-11T11:50:46.000Z</time><ele>1553</ele></trkpt><trkpt lat="46.024034" lon="9.406316"><time>2023-08-11T11:50:50.000Z</time><ele>1552</ele></trkpt><trkpt lat="46.023981" lon="9.406317"><time>2023-08-11T11:50:54.000Z</time><ele>1552</ele></trkpt><trkpt lat="46.023928" lon="9.406326"><time>2023-08-11T11:50:59.000Z</time><ele>1551</ele></trkpt><trkpt lat="46.023878" lon="9.406335"><time>2023-08-11T11:51:03.000Z</time><ele>1550</ele></trkpt><trkpt lat="46.023826" lon="9.406352"><time>2023-08-11T11:51:09.000Z</time><ele>1550</ele></trkpt><trkpt lat="46.0238" lon="9.406295"><time>2023-08-11T11:52:00.000Z</time><ele>1552</ele></trkpt><trkpt lat="46.023751" lon="9.406313"><time>2023-08-11T11:52:24.000Z</time><ele>1550</ele></trkpt><trkpt lat="46.023702" lon="9.40631"><time>2023-08-11T11:52:31.000Z</time><ele>1549</ele></trkpt><trkpt lat="46.023656" lon="9.406318"><time>2023-08-11T11:52:37.000Z</time><ele>1548</ele></trkpt><trkpt lat="46.023698" lon="9.406352"><time>2023-08-11T11:54:25.000Z</time><ele>1549</ele></trkpt><trkpt lat="46.023744" lon="9.406378"><time>2023-08-11T11:54:32.000Z</time><ele>1548</ele></trkpt><trkpt lat="46.023724" lon="9.406305"><time>2023-08-11T11:54:59.000Z</time><ele>1552</ele></trkpt><trkpt lat="46.023769" lon="9.406327"><time>2023-08-11T11:55:23.000Z</time><ele>1550</ele></trkpt><trkpt lat="46.02372" lon="9.406303"><time>2023-08-11T11:55:39.000Z</time><ele>1548</ele></trkpt><trkpt lat="46.02368" lon="9.406331"><time>2023-08-11T11:55:43.000Z</time><ele>1546</ele></trkpt><trkpt lat="46.023628" lon="9.40635"><time>2023-08-11T11:55:49.000Z</time><ele>1543</ele></trkpt><trkpt lat="46.02358" lon="9.406342"><time>2023-08-11T11:55:56.000Z</time><ele>1545</ele></trkpt><trkpt lat="46.023532" lon="9.406344"><time>2023-08-11T11:56:02.000Z</time><ele>1545</ele></trkpt><trkpt lat="46.023489" lon="9.40632"><time>2023-08-11T11:56:19.000Z</time><ele>1545</ele></trkpt><trkpt lat="46.02345" lon="9.406282"><time>2023-08-11T11:56:35.000Z</time><ele>1546</ele></trkpt><trkpt lat="46.023402" lon="9.406271"><time>2023-08-11T11:56:40.000Z</time><ele>1545</ele></trkpt><trkpt lat="46.023299" lon="9.406237"><time>2023-08-11T11:56:49.000Z</time><ele>1546</ele></trkpt><trkpt lat="46.023251" lon="9.406208"><time>2023-08-11T11:56:54.000Z</time><ele>1545</ele></trkpt><trkpt lat="46.023209" lon="9.406176"><time>2023-08-11T11:57:00.000Z</time><ele>1545</ele></trkpt><trkpt lat="46.02317" lon="9.406124"><time>2023-08-11T11:57:05.000Z</time><ele>1544</ele></trkpt><trkpt lat="46.023133" lon="9.406066"><time>2023-08-11T11:57:10.000Z</time><ele>1543</ele></trkpt><trkpt lat="46.023102" lon="9.40601"><time>2023-08-11T11:57:15.000Z</time><ele>1545</ele></trkpt><trkpt lat="46.023074" lon="9.40595"><time>2023-08-11T11:57:22.000Z</time><ele>1547</ele></trkpt><trkpt lat="46.023056" lon="9.405879"><time>2023-08-11T11:57:27.000Z</time><ele>1547</ele></trkpt><trkpt lat="46.023026" lon="9.405814"><time>2023-08-11T11:57:32.000Z</time><ele>1550</ele></trkpt><trkpt lat="46.023002" lon="9.405759"><time>2023-08-11T11:57:36.000Z</time><ele>1549</ele></trkpt><trkpt lat="46.022913" lon="9.405706"><time>2023-08-11T11:58:05.000Z</time><ele>1551</ele></trkpt><trkpt lat="46.022869" lon="9.405673"><time>2023-08-11T11:58:10.000Z</time><ele>1552</ele></trkpt><trkpt lat="46.022824" lon="9.405645"><time>2023-08-11T11:58:15.000Z</time><ele>1553</ele></trkpt><trkpt lat="46.022805" lon="9.40558"><time>2023-08-11T11:58:22.000Z</time><ele>1554</ele></trkpt><trkpt lat="46.022777" lon="9.405521"><time>2023-08-11T11:58:29.000Z</time><ele>1557</ele></trkpt><trkpt lat="46.022754" lon="9.405463"><time>2023-08-11T11:58:37.000Z</time><ele>1558</ele></trkpt><trkpt lat="46.022711" lon="9.405489"><time>2023-08-11T11:59:16.000Z</time><ele>1564</ele></trkpt><trkpt lat="46.022755" lon="9.405474"><time>2023-08-11T11:59:39.000Z</time><ele>1559</ele></trkpt><trkpt lat="46.022755" lon="9.405474"><time>2023-08-11T11:59:39.001Z</time><ele>1559</ele></trkpt><trkpt lat="46.02267" lon="9.405432"><time>2023-08-11T12:03:25.000Z</time><ele>1562</ele></trkpt><trkpt lat="46.022493" lon="9.405341"><time>2023-08-11T12:03:46.000Z</time><ele>1559</ele></trkpt><trkpt lat="46.022443" lon="9.405341"><time>2023-08-11T12:03:51.000Z</time><ele>1559</ele></trkpt><trkpt lat="46.022397" lon="9.405346"><time>2023-08-11T12:03:58.000Z</time><ele>1560</ele></trkpt><trkpt lat="46.022356" lon="9.405383"><time>2023-08-11T12:04:04.000Z</time><ele>1562</ele></trkpt><trkpt lat="46.022323" lon="9.405439"><time>2023-08-11T12:04:12.000Z</time><ele>1562</ele></trkpt><trkpt lat="46.022331" lon="9.405509"><time>2023-08-11T12:04:23.000Z</time><ele>1567</ele></trkpt><trkpt lat="46.022385" lon="9.405535"><time>2023-08-11T12:04:29.000Z</time><ele>1568</ele></trkpt><trkpt lat="46.02243" lon="9.405563"><time>2023-08-11T12:04:35.000Z</time><ele>1569</ele></trkpt><trkpt lat="46.022454" lon="9.40562"><time>2023-08-11T12:04:46.000Z</time><ele>1569</ele></trkpt><trkpt lat="46.022419" lon="9.40567"><time>2023-08-11T12:04:53.000Z</time><ele>1572</ele></trkpt><trkpt lat="46.022372" lon="9.405691"><time>2023-08-11T12:05:00.000Z</time><ele>1572</ele></trkpt><trkpt lat="46.022324" lon="9.405682"><time>2023-08-11T12:05:05.000Z</time><ele>1573</ele></trkpt><trkpt lat="46.022277" lon="9.405688"><time>2023-08-11T12:05:11.000Z</time><ele>1573</ele></trkpt><trkpt lat="46.02223" lon="9.405711"><time>2023-08-11T12:05:27.000Z</time><ele>1576</ele></trkpt><trkpt lat="46.022182" lon="9.405729"><time>2023-08-11T12:05:31.000Z</time><ele>1576</ele></trkpt><trkpt lat="46.022132" lon="9.405763"><time>2023-08-11T12:05:36.000Z</time><ele>1575</ele></trkpt><trkpt lat="46.022089" lon="9.405794"><time>2023-08-11T12:05:42.000Z</time><ele>1573</ele></trkpt><trkpt lat="46.022038" lon="9.405787"><time>2023-08-11T12:06:51.000Z</time><ele>1573</ele></trkpt><trkpt lat="46.021994" lon="9.405803"><time>2023-08-11T12:06:56.000Z</time><ele>1573</ele></trkpt><trkpt lat="46.021949" lon="9.405828"><time>2023-08-11T12:07:00.000Z</time><ele>1572</ele></trkpt><trkpt lat="46.021902" lon="9.405856"><time>2023-08-11T12:07:06.000Z</time><ele>1571</ele></trkpt><trkpt lat="46.021855" lon="9.405883"><time>2023-08-11T12:07:11.000Z</time><ele>1572</ele></trkpt><trkpt lat="46.021809" lon="9.405904"><time>2023-08-11T12:07:16.000Z</time><ele>1573</ele></trkpt><trkpt lat="46.021757" lon="9.405923"><time>2023-08-11T12:07:21.000Z</time><ele>1573</ele></trkpt><trkpt lat="46.021718" lon="9.405972"><time>2023-08-11T12:07:28.000Z</time><ele>1572</ele></trkpt><trkpt lat="46.021674" lon="9.405995"><time>2023-08-11T12:07:33.000Z</time><ele>1573</ele></trkpt><trkpt lat="46.021628" lon="9.406028"><time>2023-08-11T12:07:39.000Z</time><ele>1574</ele></trkpt><trkpt lat="46.021577" lon="9.406038"><time>2023-08-11T12:07:43.000Z</time><ele>1576</ele></trkpt><trkpt lat="46.021542" lon="9.406092"><time>2023-08-11T12:07:48.000Z</time><ele>1575</ele></trkpt><trkpt lat="46.021509" lon="9.40614"><time>2023-08-11T12:07:55.000Z</time><ele>1575</ele></trkpt><trkpt lat="46.021458" lon="9.406193"><time>2023-08-11T12:09:01.000Z</time><ele>1562</ele></trkpt><trkpt lat="46.021436" lon="9.406265"><time>2023-08-11T12:09:33.000Z</time><ele>1573</ele></trkpt><trkpt lat="46.021405" lon="9.406314"><time>2023-08-11T12:09:37.000Z</time><ele>1574</ele></trkpt><trkpt lat="46.021381" lon="9.406382"><time>2023-08-11T12:09:42.000Z</time><ele>1574</ele></trkpt><trkpt lat="46.021363" lon="9.406443"><time>2023-08-11T12:09:46.000Z</time><ele>1574</ele></trkpt><trkpt lat="46.021336" lon="9.406499"><time>2023-08-11T12:09:51.000Z</time><ele>1574</ele></trkpt><trkpt lat="46.021308" lon="9.406555"><time>2023-08-11T12:09:57.000Z</time><ele>1575</ele></trkpt><trkpt lat="46.021314" lon="9.406631"><time>2023-08-11T12:11:24.000Z</time><ele>1577</ele></trkpt><trkpt lat="46.02128" lon="9.406766"><time>2023-08-11T12:12:05.000Z</time><ele>1575</ele></trkpt><trkpt lat="46.021278" lon="9.406832"><time>2023-08-11T12:12:09.000Z</time><ele>1577</ele></trkpt><trkpt lat="46.021291" lon="9.406894"><time>2023-08-11T12:12:14.000Z</time><ele>1576</ele></trkpt><trkpt lat="46.021307" lon="9.406957"><time>2023-08-11T12:12:18.000Z</time><ele>1577</ele></trkpt><trkpt lat="46.021319" lon="9.407019"><time>2023-08-11T12:12:23.000Z</time><ele>1577</ele></trkpt><trkpt lat="46.021345" lon="9.407082"><time>2023-08-11T12:12:34.000Z</time><ele>1577</ele></trkpt><trkpt lat="46.021354" lon="9.407153"><time>2023-08-11T12:12:39.000Z</time><ele>1576</ele></trkpt><trkpt lat="46.021368" lon="9.407223"><time>2023-08-11T12:12:44.000Z</time><ele>1576</ele></trkpt><trkpt lat="46.021369" lon="9.407291"><time>2023-08-11T12:12:49.000Z</time><ele>1576</ele></trkpt><trkpt lat="46.02136" lon="9.407365"><time>2023-08-11T12:13:01.000Z</time><ele>1577</ele></trkpt><trkpt lat="46.021357" lon="9.407435"><time>2023-08-11T12:13:08.000Z</time><ele>1577</ele></trkpt><trkpt lat="46.021402" lon="9.407462"><time>2023-08-11T12:13:25.000Z</time><ele>1582</ele></trkpt><trkpt lat="46.021352" lon="9.407453"><time>2023-08-11T12:14:16.000Z</time><ele>1580</ele></trkpt><trkpt lat="46.0213" lon="9.407475"><time>2023-08-11T12:14:25.000Z</time><ele>1581</ele></trkpt><trkpt lat="46.02127" lon="9.407529"><time>2023-08-11T12:14:30.000Z</time><ele>1581</ele></trkpt><trkpt lat="46.021223" lon="9.407568"><time>2023-08-11T12:14:37.000Z</time><ele>1580</ele></trkpt><trkpt lat="46.021184" lon="9.407605"><time>2023-08-11T12:14:42.000Z</time><ele>1582</ele></trkpt><trkpt lat="46.021226" lon="9.407571"><time>2023-08-11T12:14:50.000Z</time><ele>1582</ele></trkpt><trkpt lat="46.021263" lon="9.407617"><time>2023-08-11T12:16:26.000Z</time><ele>1585</ele></trkpt><trkpt lat="46.021218" lon="9.407633"><time>2023-08-11T12:16:44.000Z</time><ele>1586</ele></trkpt><trkpt lat="46.021181" lon="9.407686"><time>2023-08-11T12:16:50.000Z</time><ele>1586</ele></trkpt><trkpt lat="46.021145" lon="9.407747"><time>2023-08-11T12:16:56.000Z</time><ele>1586</ele></trkpt><trkpt lat="46.021117" lon="9.407803"><time>2023-08-11T12:17:07.000Z</time><ele>1584</ele></trkpt><trkpt lat="46.021099" lon="9.407875"><time>2023-08-11T12:17:12.000Z</time><ele>1585</ele></trkpt><trkpt lat="46.021076" lon="9.407932"><time>2023-08-11T12:17:16.000Z</time><ele>1584</ele></trkpt><trkpt lat="46.021046" lon="9.407996"><time>2023-08-11T12:17:22.000Z</time><ele>1585</ele></trkpt><trkpt lat="46.021007" lon="9.408031"><time>2023-08-11T12:17:27.000Z</time><ele>1586</ele></trkpt><trkpt lat="46.020962" lon="9.408033"><time>2023-08-11T12:17:31.000Z</time><ele>1586</ele></trkpt><trkpt lat="46.02091" lon="9.408045"><time>2023-08-11T12:17:37.000Z</time><ele>1584</ele></trkpt><trkpt lat="46.020871" lon="9.407991"><time>2023-08-11T12:17:51.000Z</time><ele>1581</ele></trkpt><trkpt lat="46.020826" lon="9.407983"><time>2023-08-11T12:17:56.000Z</time><ele>1582</ele></trkpt><trkpt lat="46.020779" lon="9.40801"><time>2023-08-11T12:18:02.000Z</time><ele>1581</ele></trkpt><trkpt lat="46.020732" lon="9.408028"><time>2023-08-11T12:18:06.000Z</time><ele>1581</ele></trkpt><trkpt lat="46.02069" lon="9.408053"><time>2023-08-11T12:18:11.000Z</time><ele>1581</ele></trkpt><trkpt lat="46.020638" lon="9.408076"><time>2023-08-11T12:18:16.000Z</time><ele>1582</ele></trkpt><trkpt lat="46.020584" lon="9.408093"><time>2023-08-11T12:18:23.000Z</time><ele>1582</ele></trkpt><trkpt lat="46.020536" lon="9.408117"><time>2023-08-11T12:18:28.000Z</time><ele>1582</ele></trkpt><trkpt lat="46.020491" lon="9.408134"><time>2023-08-11T12:18:34.000Z</time><ele>1583</ele></trkpt><trkpt lat="46.02044" lon="9.408117"><time>2023-08-11T12:18:40.000Z</time><ele>1584</ele></trkpt><trkpt lat="46.020393" lon="9.408082"><time>2023-08-11T12:18:46.000Z</time><ele>1582</ele></trkpt><trkpt lat="46.020351" lon="9.408052"><time>2023-08-11T12:18:52.000Z</time><ele>1582</ele></trkpt><trkpt lat="46.0203" lon="9.408035"><time>2023-08-11T12:18:57.000Z</time><ele>1585</ele></trkpt><trkpt lat="46.020244" lon="9.408042"><time>2023-08-11T12:19:04.000Z</time><ele>1586</ele></trkpt><trkpt lat="46.020194" lon="9.408052"><time>2023-08-11T12:19:09.000Z</time><ele>1588</ele></trkpt><trkpt lat="46.020143" lon="9.408071"><time>2023-08-11T12:19:15.000Z</time><ele>1588</ele></trkpt><trkpt lat="46.02009" lon="9.40809"><time>2023-08-11T12:19:20.000Z</time><ele>1588</ele></trkpt><trkpt lat="46.020041" lon="9.408109"><time>2023-08-11T12:19:26.000Z</time><ele>1588</ele></trkpt><trkpt lat="46.019951" lon="9.408156"><time>2023-08-11T12:19:35.000Z</time><ele>1587</ele></trkpt><trkpt lat="46.019902" lon="9.408167"><time>2023-08-11T12:19:40.000Z</time><ele>1586</ele></trkpt><trkpt lat="46.019855" lon="9.40819"><time>2023-08-11T12:19:47.000Z</time><ele>1585</ele></trkpt><trkpt lat="46.019802" lon="9.408199"><time>2023-08-11T12:19:53.000Z</time><ele>1585</ele></trkpt><trkpt lat="46.019754" lon="9.408204"><time>2023-08-11T12:19:58.000Z</time><ele>1584</ele></trkpt><trkpt lat="46.019706" lon="9.408206"><time>2023-08-11T12:20:03.000Z</time><ele>1583</ele></trkpt><trkpt lat="46.019661" lon="9.408197"><time>2023-08-11T12:20:08.000Z</time><ele>1583</ele></trkpt><trkpt lat="46.019616" lon="9.408204"><time>2023-08-11T12:20:14.000Z</time><ele>1582</ele></trkpt><trkpt lat="46.019569" lon="9.408192"><time>2023-08-11T12:20:20.000Z</time><ele>1581</ele></trkpt><trkpt lat="46.019518" lon="9.408213"><time>2023-08-11T12:20:28.000Z</time><ele>1579</ele></trkpt><trkpt lat="46.019473" lon="9.408241"><time>2023-08-11T12:20:47.000Z</time><ele>1577</ele></trkpt><trkpt lat="46.019429" lon="9.408262"><time>2023-08-11T12:20:52.000Z</time><ele>1577</ele></trkpt><trkpt lat="46.019377" lon="9.40828"><time>2023-08-11T12:21:00.000Z</time><ele>1578</ele></trkpt><trkpt lat="46.019329" lon="9.408287"><time>2023-08-11T12:21:07.000Z</time><ele>1576</ele></trkpt><trkpt lat="46.019285" lon="9.408308"><time>2023-08-11T12:21:14.000Z</time><ele>1576</ele></trkpt><trkpt lat="46.019238" lon="9.40832"><time>2023-08-11T12:21:21.000Z</time><ele>1575</ele></trkpt><trkpt lat="46.019191" lon="9.408339"><time>2023-08-11T12:21:30.000Z</time><ele>1573</ele></trkpt><trkpt lat="46.019147" lon="9.408359"><time>2023-08-11T12:21:37.000Z</time><ele>1572</ele></trkpt><trkpt lat="46.019099" lon="9.408365"><time>2023-08-11T12:21:44.000Z</time><ele>1571</ele></trkpt><trkpt lat="46.019046" lon="9.408373"><time>2023-08-11T12:21:51.000Z</time><ele>1570</ele></trkpt><trkpt lat="46.018999" lon="9.408389"><time>2023-08-11T12:21:58.000Z</time><ele>1569</ele></trkpt><trkpt lat="46.018955" lon="9.408408"><time>2023-08-11T12:22:05.000Z</time><ele>1566</ele></trkpt><trkpt lat="46.018911" lon="9.408423"><time>2023-08-11T12:22:11.000Z</time><ele>1566</ele></trkpt><trkpt lat="46.018861" lon="9.40843"><time>2023-08-11T12:22:17.000Z</time><ele>1567</ele></trkpt><trkpt lat="46.01881" lon="9.408442"><time>2023-08-11T12:22:23.000Z</time><ele>1567</ele></trkpt><trkpt lat="46.018762" lon="9.40844"><time>2023-08-11T12:22:32.000Z</time><ele>1566</ele></trkpt><trkpt lat="46.018811" lon="9.408421"><time>2023-08-11T12:23:14.000Z</time><ele>1565</ele></trkpt><trkpt lat="46.018811" lon="9.408421"><time>2023-08-11T12:23:14.001Z</time><ele>1565</ele></trkpt><trkpt lat="46.018764" lon="9.408452"><time>2023-08-11T12:31:51.000Z</time><ele>1568</ele></trkpt><trkpt lat="46.018812" lon="9.40842"><time>2023-08-11T12:32:20.000Z</time><ele>1568</ele></trkpt><trkpt lat="46.018867" lon="9.408412"><time>2023-08-11T12:32:26.000Z</time><ele>1567</ele></trkpt><trkpt lat="46.018918" lon="9.4084"><time>2023-08-11T12:32:32.000Z</time><ele>1567</ele></trkpt><trkpt lat="46.018965" lon="9.408385"><time>2023-08-11T12:32:37.000Z</time><ele>1566</ele></trkpt><trkpt lat="46.019015" lon="9.408387"><time>2023-08-11T12:32:47.000Z</time><ele>1567</ele></trkpt><trkpt lat="46.019064" lon="9.408384"><time>2023-08-11T12:32:52.000Z</time><ele>1569</ele></trkpt><trkpt lat="46.01911" lon="9.408368"><time>2023-08-11T12:32:57.000Z</time><ele>1570</ele></trkpt><trkpt lat="46.01916" lon="9.408363"><time>2023-08-11T12:33:03.000Z</time><ele>1570</ele></trkpt><trkpt lat="46.019208" lon="9.408365"><time>2023-08-11T12:33:09.000Z</time><ele>1570</ele></trkpt><trkpt lat="46.019255" lon="9.408348"><time>2023-08-11T12:33:16.000Z</time><ele>1571</ele></trkpt><trkpt lat="46.019304" lon="9.408333"><time>2023-08-11T12:33:23.000Z</time><ele>1573</ele></trkpt><trkpt lat="46.019348" lon="9.408314"><time>2023-08-11T12:33:30.000Z</time><ele>1575</ele></trkpt><trkpt lat="46.019396" lon="9.408301"><time>2023-08-11T12:33:36.000Z</time><ele>1577</ele></trkpt><trkpt lat="46.019443" lon="9.40829"><time>2023-08-11T12:33:42.000Z</time><ele>1579</ele></trkpt><trkpt lat="46.019489" lon="9.408275"><time>2023-08-11T12:33:49.000Z</time><ele>1580</ele></trkpt><trkpt lat="46.019535" lon="9.408274"><time>2023-08-11T12:33:56.000Z</time><ele>1580</ele></trkpt><trkpt lat="46.019578" lon="9.408254"><time>2023-08-11T12:34:02.000Z</time><ele>1581</ele></trkpt><trkpt lat="46.019626" lon="9.408232"><time>2023-08-11T12:34:21.000Z</time><ele>1581</ele></trkpt><trkpt lat="46.019674" lon="9.408232"><time>2023-08-11T12:34:26.000Z</time><ele>1581</ele></trkpt><trkpt lat="46.01972" lon="9.40824"><time>2023-08-11T12:34:32.000Z</time><ele>1582</ele></trkpt><trkpt lat="46.019765" lon="9.408239"><time>2023-08-11T12:34:38.000Z</time><ele>1582</ele></trkpt><trkpt lat="46.019816" lon="9.408224"><time>2023-08-11T12:34:44.000Z</time><ele>1581</ele></trkpt><trkpt lat="46.019868" lon="9.408208"><time>2023-08-11T12:34:50.000Z</time><ele>1581</ele></trkpt><trkpt lat="46.019914" lon="9.408201"><time>2023-08-11T12:34:57.000Z</time><ele>1582</ele></trkpt><trkpt lat="46.019958" lon="9.408189"><time>2023-08-11T12:35:19.000Z</time><ele>1581</ele></trkpt><trkpt lat="46.020004" lon="9.408176"><time>2023-08-11T12:35:24.000Z</time><ele>1580</ele></trkpt><trkpt lat="46.020042" lon="9.408126"><time>2023-08-11T12:35:31.000Z</time><ele>1580</ele></trkpt><trkpt lat="46.020085" lon="9.408098"><time>2023-08-11T12:35:36.000Z</time><ele>1582</ele></trkpt><trkpt lat="46.020134" lon="9.408092"><time>2023-08-11T12:35:42.000Z</time><ele>1585</ele></trkpt><trkpt lat="46.02018" lon="9.408074"><time>2023-08-11T12:35:48.000Z</time><ele>1584</ele></trkpt><trkpt lat="46.020231" lon="9.408069"><time>2023-08-11T12:35:55.000Z</time><ele>1585</ele></trkpt><trkpt lat="46.020275" lon="9.408047"><time>2023-08-11T12:36:01.000Z</time><ele>1585</ele></trkpt><trkpt lat="46.020325" lon="9.408074"><time>2023-08-11T12:36:11.000Z</time><ele>1585</ele></trkpt><trkpt lat="46.020372" lon="9.408105"><time>2023-08-11T12:36:16.000Z</time><ele>1586</ele></trkpt><trkpt lat="46.020411" lon="9.408139"><time>2023-08-11T12:36:21.000Z</time><ele>1587</ele></trkpt><trkpt lat="46.020457" lon="9.408141"><time>2023-08-11T12:36:26.000Z</time><ele>1588</ele></trkpt><trkpt lat="46.020505" lon="9.408158"><time>2023-08-11T12:36:33.000Z</time><ele>1588</ele></trkpt><trkpt lat="46.020555" lon="9.408151"><time>2023-08-11T12:36:39.000Z</time><ele>1586</ele></trkpt><trkpt lat="46.020607" lon="9.408153"><time>2023-08-11T12:36:45.000Z</time><ele>1584</ele></trkpt><trkpt lat="46.020653" lon="9.408121"><time>2023-08-11T12:36:51.000Z</time><ele>1584</ele></trkpt><trkpt lat="46.020706" lon="9.408081"><time>2023-08-11T12:37:00.000Z</time><ele>1585</ele></trkpt><trkpt lat="46.020751" lon="9.408069"><time>2023-08-11T12:37:04.000Z</time><ele>1585</ele></trkpt><trkpt lat="46.020802" lon="9.408056"><time>2023-08-11T12:37:09.000Z</time><ele>1583</ele></trkpt><trkpt lat="46.020857" lon="9.408052"><time>2023-08-11T12:37:14.000Z</time><ele>1583</ele></trkpt><trkpt lat="46.020902" lon="9.408051"><time>2023-08-11T12:37:19.000Z</time><ele>1582</ele></trkpt><trkpt lat="46.020951" lon="9.408053"><time>2023-08-11T12:37:24.000Z</time><ele>1581</ele></trkpt><trkpt lat="46.020998" lon="9.408035"><time>2023-08-11T12:37:28.000Z</time><ele>1580</ele></trkpt><trkpt lat="46.021044" lon="9.408039"><time>2023-08-11T12:37:33.000Z</time><ele>1580</ele></trkpt><trkpt lat="46.021093" lon="9.408005"><time>2023-08-11T12:37:38.000Z</time><ele>1579</ele></trkpt><trkpt lat="46.021119" lon="9.407939"><time>2023-08-11T12:37:43.000Z</time><ele>1579</ele></trkpt><trkpt lat="46.021132" lon="9.407863"><time>2023-08-11T12:37:48.000Z</time><ele>1579</ele></trkpt><trkpt lat="46.02116" lon="9.407806"><time>2023-08-11T12:37:53.000Z</time><ele>1577</ele></trkpt><trkpt lat="46.02119" lon="9.407753"><time>2023-08-11T12:37:58.000Z</time><ele>1577</ele></trkpt><trkpt lat="46.021224" lon="9.407697"><time>2023-08-11T12:38:04.000Z</time><ele>1579</ele></trkpt><trkpt lat="46.021258" lon="9.407642"><time>2023-08-11T12:38:10.000Z</time><ele>1580</ele></trkpt><trkpt lat="46.021284" lon="9.407581"><time>2023-08-11T12:38:15.000Z</time><ele>1582</ele></trkpt><trkpt lat="46.021315" lon="9.407522"><time>2023-08-11T12:38:21.000Z</time><ele>1582</ele></trkpt><trkpt lat="46.021345" lon="9.407473"><time>2023-08-11T12:38:27.000Z</time><ele>1580</ele></trkpt><trkpt lat="46.021362" lon="9.407413"><time>2023-08-11T12:38:31.000Z</time><ele>1580</ele></trkpt><trkpt lat="46.021366" lon="9.407337"><time>2023-08-11T12:38:36.000Z</time><ele>1579</ele></trkpt><trkpt lat="46.021353" lon="9.407269"><time>2023-08-11T12:38:40.000Z</time><ele>1580</ele></trkpt><trkpt lat="46.021343" lon="9.407199"><time>2023-08-11T12:38:44.000Z</time><ele>1581</ele></trkpt><trkpt lat="46.021327" lon="9.407135"><time>2023-08-11T12:38:48.000Z</time><ele>1582</ele></trkpt><trkpt lat="46.021314" lon="9.407066"><time>2023-08-11T12:38:54.000Z</time><ele>1583</ele></trkpt><trkpt lat="46.021304" lon="9.407"><time>2023-08-11T12:38:59.000Z</time><ele>1583</ele></trkpt><trkpt lat="46.021292" lon="9.406936"><time>2023-08-11T12:39:03.000Z</time><ele>1584</ele></trkpt><trkpt lat="46.021278" lon="9.40686"><time>2023-08-11T12:39:08.000Z</time><ele>1583</ele></trkpt><trkpt lat="46.021261" lon="9.40679"><time>2023-08-11T12:39:14.000Z</time><ele>1583</ele></trkpt><trkpt lat="46.021279" lon="9.406726"><time>2023-08-11T12:39:20.000Z</time><ele>1583</ele></trkpt><trkpt lat="46.021304" lon="9.406668"><time>2023-08-11T12:39:25.000Z</time><ele>1582</ele></trkpt><trkpt lat="46.021318" lon="9.406598"><time>2023-08-11T12:40:19.000Z</time><ele>1579</ele></trkpt><trkpt lat="46.021339" lon="9.406533"><time>2023-08-11T12:40:26.000Z</time><ele>1580</ele></trkpt><trkpt lat="46.02137" lon="9.406483"><time>2023-08-11T12:40:31.000Z</time><ele>1580</ele></trkpt><trkpt lat="46.0214" lon="9.406428"><time>2023-08-11T12:40:36.000Z</time><ele>1580</ele></trkpt><trkpt lat="46.021425" lon="9.406372"><time>2023-08-11T12:40:41.000Z</time><ele>1581</ele></trkpt><trkpt lat="46.021449" lon="9.406309"><time>2023-08-11T12:40:47.000Z</time><ele>1580</ele></trkpt><trkpt lat="46.021474" lon="9.406251"><time>2023-08-11T12:40:53.000Z</time><ele>1581</ele></trkpt><trkpt lat="46.021499" lon="9.406192"><time>2023-08-11T12:40:58.000Z</time><ele>1579</ele></trkpt><trkpt lat="46.02154" lon="9.406146"><time>2023-08-11T12:41:04.000Z</time><ele>1579</ele></trkpt><trkpt lat="46.02157" lon="9.406097"><time>2023-08-11T12:41:11.000Z</time><ele>1577</ele></trkpt><trkpt lat="46.021612" lon="9.406063"><time>2023-08-11T12:41:17.000Z</time><ele>1576</ele></trkpt><trkpt lat="46.021646" lon="9.40602"><time>2023-08-11T12:41:23.000Z</time><ele>1576</ele></trkpt><trkpt lat="46.02169" lon="9.405982"><time>2023-08-11T12:41:29.000Z</time><ele>1575</ele></trkpt><trkpt lat="46.021734" lon="9.405949"><time>2023-08-11T12:41:36.000Z</time><ele>1573</ele></trkpt><trkpt lat="46.021774" lon="9.405918"><time>2023-08-11T12:41:41.000Z</time><ele>1574</ele></trkpt><trkpt lat="46.021823" lon="9.405897"><time>2023-08-11T12:41:47.000Z</time><ele>1574</ele></trkpt><trkpt lat="46.021865" lon="9.405865"><time>2023-08-11T12:41:52.000Z</time><ele>1574</ele></trkpt><trkpt lat="46.021912" lon="9.405863"><time>2023-08-11T12:41:57.000Z</time><ele>1573</ele></trkpt><trkpt lat="46.021957" lon="9.405841"><time>2023-08-11T12:42:02.000Z</time><ele>1574</ele></trkpt><trkpt lat="46.022001" lon="9.405816"><time>2023-08-11T12:42:07.000Z</time><ele>1574</ele></trkpt><trkpt lat="46.022046" lon="9.405795"><time>2023-08-11T12:42:12.000Z</time><ele>1575</ele></trkpt><trkpt lat="46.022096" lon="9.405778"><time>2023-08-11T12:42:17.000Z</time><ele>1574</ele></trkpt><trkpt lat="46.022143" lon="9.405765"><time>2023-08-11T12:42:22.000Z</time><ele>1574</ele></trkpt><trkpt lat="46.022191" lon="9.405736"><time>2023-08-11T12:42:27.000Z</time><ele>1574</ele></trkpt><trkpt lat="46.02224" lon="9.405709"><time>2023-08-11T12:42:32.000Z</time><ele>1576</ele></trkpt><trkpt lat="46.022291" lon="9.40568"><time>2023-08-11T12:42:37.000Z</time><ele>1577</ele></trkpt><trkpt lat="46.022333" lon="9.405646"><time>2023-08-11T12:42:42.000Z</time><ele>1578</ele></trkpt><trkpt lat="46.022384" lon="9.405643"><time>2023-08-11T12:42:47.000Z</time><ele>1578</ele></trkpt><trkpt lat="46.02243" lon="9.405627"><time>2023-08-11T12:42:53.000Z</time><ele>1578</ele></trkpt><trkpt lat="46.022431" lon="9.405562"><time>2023-08-11T12:43:16.000Z</time><ele>1576</ele></trkpt><trkpt lat="46.022382" lon="9.405536"><time>2023-08-11T12:43:23.000Z</time><ele>1575</ele></trkpt><trkpt lat="46.022337" lon="9.405497"><time>2023-08-11T12:43:30.000Z</time><ele>1574</ele></trkpt><trkpt lat="46.022326" lon="9.405433"><time>2023-08-11T12:43:38.000Z</time><ele>1572</ele></trkpt><trkpt lat="46.022358" lon="9.405387"><time>2023-08-11T12:43:47.000Z</time><ele>1569</ele></trkpt><trkpt lat="46.022393" lon="9.405346"><time>2023-08-11T12:43:55.000Z</time><ele>1568</ele></trkpt><trkpt lat="46.02244" lon="9.405315"><time>2023-08-11T12:44:02.000Z</time><ele>1568</ele></trkpt><trkpt lat="46.022489" lon="9.405304"><time>2023-08-11T12:44:10.000Z</time><ele>1568</ele></trkpt><trkpt lat="46.022532" lon="9.405324"><time>2023-08-11T12:44:16.000Z</time><ele>1567</ele></trkpt><trkpt lat="46.022579" lon="9.40535"><time>2023-08-11T12:44:23.000Z</time><ele>1565</ele></trkpt><trkpt lat="46.022621" lon="9.405391"><time>2023-08-11T12:44:29.000Z</time><ele>1563</ele></trkpt><trkpt lat="46.022663" lon="9.405424"><time>2023-08-11T12:44:34.000Z</time><ele>1562</ele></trkpt><trkpt lat="46.022704" lon="9.40546"><time>2023-08-11T12:44:39.000Z</time><ele>1560</ele></trkpt><trkpt lat="46.02274" lon="9.405507"><time>2023-08-11T12:44:44.000Z</time><ele>1560</ele></trkpt><trkpt lat="46.022774" lon="9.40557"><time>2023-08-11T12:44:50.000Z</time><ele>1558</ele></trkpt><trkpt lat="46.022806" lon="9.405622"><time>2023-08-11T12:44:57.000Z</time><ele>1556</ele></trkpt><trkpt lat="46.022841" lon="9.405676"><time>2023-08-11T12:45:04.000Z</time><ele>1555</ele></trkpt><trkpt lat="46.022887" lon="9.405693"><time>2023-08-11T12:45:09.000Z</time><ele>1555</ele></trkpt><trkpt lat="46.022932" lon="9.40572"><time>2023-08-11T12:45:17.000Z</time><ele>1556</ele></trkpt><trkpt lat="46.022976" lon="9.405758"><time>2023-08-11T12:45:24.000Z</time><ele>1556</ele></trkpt><trkpt lat="46.022991" lon="9.40583"><time>2023-08-11T12:45:42.000Z</time><ele>1553</ele></trkpt><trkpt lat="46.023038" lon="9.405852"><time>2023-08-11T12:45:46.000Z</time><ele>1554</ele></trkpt><trkpt lat="46.023056" lon="9.405919"><time>2023-08-11T12:45:51.000Z</time><ele>1553</ele></trkpt><trkpt lat="46.023091" lon="9.405964"><time>2023-08-11T12:45:55.000Z</time><ele>1553</ele></trkpt><trkpt lat="46.023116" lon="9.406031"><time>2023-08-11T12:46:00.000Z</time><ele>1551</ele></trkpt><trkpt lat="46.023158" lon="9.406079"><time>2023-08-11T12:46:05.000Z</time><ele>1550</ele></trkpt><trkpt lat="46.023198" lon="9.406123"><time>2023-08-11T12:46:10.000Z</time><ele>1550</ele></trkpt><trkpt lat="46.023242" lon="9.406158"><time>2023-08-11T12:46:15.000Z</time><ele>1549</ele></trkpt><trkpt lat="46.023286" lon="9.406197"><time>2023-08-11T12:46:20.000Z</time><ele>1548</ele></trkpt><trkpt lat="46.023326" lon="9.406226"><time>2023-08-11T12:46:24.000Z</time><ele>1548</ele></trkpt><trkpt lat="46.023373" lon="9.406248"><time>2023-08-11T12:46:29.000Z</time><ele>1548</ele></trkpt><trkpt lat="46.023422" lon="9.406264"><time>2023-08-11T12:46:34.000Z</time><ele>1548</ele></trkpt><trkpt lat="46.023464" lon="9.406284"><time>2023-08-11T12:46:39.000Z</time><ele>1548</ele></trkpt><trkpt lat="46.023514" lon="9.406299"><time>2023-08-11T12:46:44.000Z</time><ele>1548</ele></trkpt><trkpt lat="46.023566" lon="9.406295"><time>2023-08-11T12:46:49.000Z</time><ele>1548</ele></trkpt><trkpt lat="46.023615" lon="9.406304"><time>2023-08-11T12:46:54.000Z</time><ele>1547</ele></trkpt><trkpt lat="46.023663" lon="9.4063"><time>2023-08-11T12:46:59.000Z</time><ele>1547</ele></trkpt><trkpt lat="46.023711" lon="9.406315"><time>2023-08-11T12:47:05.000Z</time><ele>1547</ele></trkpt><trkpt lat="46.023758" lon="9.406315"><time>2023-08-11T12:47:09.000Z</time><ele>1547</ele></trkpt><trkpt lat="46.023812" lon="9.406316"><time>2023-08-11T12:47:14.000Z</time><ele>1548</ele></trkpt><trkpt lat="46.02386" lon="9.40631"><time>2023-08-11T12:47:18.000Z</time><ele>1547</ele></trkpt><trkpt lat="46.023912" lon="9.406298"><time>2023-08-11T12:47:24.000Z</time><ele>1547</ele></trkpt><trkpt lat="46.023963" lon="9.406286"><time>2023-08-11T12:47:29.000Z</time><ele>1547</ele></trkpt><trkpt lat="46.024018" lon="9.406278"><time>2023-08-11T12:47:34.000Z</time><ele>1548</ele></trkpt><trkpt lat="46.024063" lon="9.406259"><time>2023-08-11T12:47:38.000Z</time><ele>1548</ele></trkpt><trkpt lat="46.024109" lon="9.406229"><time>2023-08-11T12:47:44.000Z</time><ele>1549</ele></trkpt><trkpt lat="46.024157" lon="9.40621"><time>2023-08-11T12:47:49.000Z</time><ele>1548</ele></trkpt><trkpt lat="46.024211" lon="9.406196"><time>2023-08-11T12:47:53.000Z</time><ele>1548</ele></trkpt><trkpt lat="46.024256" lon="9.406198"><time>2023-08-11T12:47:59.000Z</time><ele>1547</ele></trkpt><trkpt lat="46.0243" lon="9.406178"><time>2023-08-11T12:48:05.000Z</time><ele>1547</ele></trkpt><trkpt lat="46.024346" lon="9.406172"><time>2023-08-11T12:48:11.000Z</time><ele>1546</ele></trkpt><trkpt lat="46.024398" lon="9.406163"><time>2023-08-11T12:48:16.000Z</time><ele>1548</ele></trkpt><trkpt lat="46.024443" lon="9.406174"><time>2023-08-11T12:48:21.000Z</time><ele>1547</ele></trkpt><trkpt lat="46.024491" lon="9.406177"><time>2023-08-11T12:48:27.000Z</time><ele>1547</ele></trkpt><trkpt lat="46.02454" lon="9.406177"><time>2023-08-11T12:48:31.000Z</time><ele>1546</ele></trkpt><trkpt lat="46.024585" lon="9.406191"><time>2023-08-11T12:48:35.000Z</time><ele>1544</ele></trkpt><trkpt lat="46.024627" lon="9.406223"><time>2023-08-11T12:48:40.000Z</time><ele>1545</ele></trkpt><trkpt lat="46.024671" lon="9.406255"><time>2023-08-11T12:48:45.000Z</time><ele>1545</ele></trkpt><trkpt lat="46.024716" lon="9.406291"><time>2023-08-11T12:48:50.000Z</time><ele>1546</ele></trkpt><trkpt lat="46.024761" lon="9.406327"><time>2023-08-11T12:48:57.000Z</time><ele>1546</ele></trkpt><trkpt lat="46.0248" lon="9.406375"><time>2023-08-11T12:49:03.000Z</time><ele>1544</ele></trkpt><trkpt lat="46.024837" lon="9.406416"><time>2023-08-11T12:49:10.000Z</time><ele>1543</ele></trkpt><trkpt lat="46.024878" lon="9.406443"><time>2023-08-11T12:49:14.000Z</time><ele>1545</ele></trkpt><trkpt lat="46.024928" lon="9.406463"><time>2023-08-11T12:49:20.000Z</time><ele>1546</ele></trkpt><trkpt lat="46.024982" lon="9.406465"><time>2023-08-11T12:49:25.000Z</time><ele>1547</ele></trkpt><trkpt lat="46.025031" lon="9.406477"><time>2023-08-11T12:49:30.000Z</time><ele>1546</ele></trkpt><trkpt lat="46.025079" lon="9.406481"><time>2023-08-11T12:49:36.000Z</time><ele>1547</ele></trkpt><trkpt lat="46.025132" lon="9.406484"><time>2023-08-11T12:49:43.000Z</time><ele>1546</ele></trkpt><trkpt lat="46.025182" lon="9.406468"><time>2023-08-11T12:49:47.000Z</time><ele>1548</ele></trkpt><trkpt lat="46.025228" lon="9.406454"><time>2023-08-11T12:49:52.000Z</time><ele>1548</ele></trkpt><trkpt lat="46.025284" lon="9.406427"><time>2023-08-11T12:49:57.000Z</time><ele>1547</ele></trkpt><trkpt lat="46.025327" lon="9.406399"><time>2023-08-11T12:50:01.000Z</time><ele>1546</ele></trkpt><trkpt lat="46.025373" lon="9.406356"><time>2023-08-11T12:50:05.000Z</time><ele>1547</ele></trkpt><trkpt lat="46.025404" lon="9.406302"><time>2023-08-11T12:50:09.000Z</time><ele>1549</ele></trkpt><trkpt lat="46.025431" lon="9.406238"><time>2023-08-11T12:50:14.000Z</time><ele>1550</ele></trkpt><trkpt lat="46.02547" lon="9.406188"><time>2023-08-11T12:50:19.000Z</time><ele>1551</ele></trkpt><trkpt lat="46.025493" lon="9.406122"><time>2023-08-11T12:50:23.000Z</time><ele>1552</ele></trkpt><trkpt lat="46.025519" lon="9.406057"><time>2023-08-11T12:50:28.000Z</time><ele>1553</ele></trkpt><trkpt lat="46.02555" lon="9.405993"><time>2023-08-11T12:50:34.000Z</time><ele>1554</ele></trkpt><trkpt lat="46.025584" lon="9.405937"><time>2023-08-11T12:50:38.000Z</time><ele>1555</ele></trkpt><trkpt lat="46.025613" lon="9.405884"><time>2023-08-11T12:50:42.000Z</time><ele>1555</ele></trkpt><trkpt lat="46.025633" lon="9.405824"><time>2023-08-11T12:50:46.000Z</time><ele>1556</ele></trkpt><trkpt lat="46.025659" lon="9.405772"><time>2023-08-11T12:50:51.000Z</time><ele>1559</ele></trkpt><trkpt lat="46.0257" lon="9.405731"><time>2023-08-11T12:50:56.000Z</time><ele>1559</ele></trkpt><trkpt lat="46.025749" lon="9.405733"><time>2023-08-11T12:51:01.000Z</time><ele>1560</ele></trkpt><trkpt lat="46.025797" lon="9.40575"><time>2023-08-11T12:51:07.000Z</time><ele>1559</ele></trkpt><trkpt lat="46.025843" lon="9.405776"><time>2023-08-11T12:51:12.000Z</time><ele>1559</ele></trkpt><trkpt lat="46.025883" lon="9.405814"><time>2023-08-11T12:51:17.000Z</time><ele>1561</ele></trkpt><trkpt lat="46.025922" lon="9.40586"><time>2023-08-11T12:51:22.000Z</time><ele>1560</ele></trkpt><trkpt lat="46.025956" lon="9.405907"><time>2023-08-11T12:51:28.000Z</time><ele>1559</ele></trkpt><trkpt lat="46.025997" lon="9.405951"><time>2023-08-11T12:51:34.000Z</time><ele>1560</ele></trkpt><trkpt lat="46.026033" lon="9.406003"><time>2023-08-11T12:51:40.000Z</time><ele>1560</ele></trkpt><trkpt lat="46.026069" lon="9.406052"><time>2023-08-11T12:51:46.000Z</time><ele>1559</ele></trkpt><trkpt lat="46.026098" lon="9.406105"><time>2023-08-11T12:51:50.000Z</time><ele>1559</ele></trkpt><trkpt lat="46.026133" lon="9.406164"><time>2023-08-11T12:51:55.000Z</time><ele>1559</ele></trkpt><trkpt lat="46.026166" lon="9.406211"><time>2023-08-11T12:52:00.000Z</time><ele>1559</ele></trkpt><trkpt lat="46.026206" lon="9.406267"><time>2023-08-11T12:52:07.000Z</time><ele>1558</ele></trkpt><trkpt lat="46.026239" lon="9.406328"><time>2023-08-11T12:52:12.000Z</time><ele>1558</ele></trkpt><trkpt lat="46.02628" lon="9.406366"><time>2023-08-11T12:52:17.000Z</time><ele>1557</ele></trkpt><trkpt lat="46.026325" lon="9.40639"><time>2023-08-11T12:52:21.000Z</time><ele>1556</ele></trkpt><trkpt lat="46.026373" lon="9.406397"><time>2023-08-11T12:52:26.000Z</time><ele>1556</ele></trkpt><trkpt lat="46.026436" lon="9.406402"><time>2023-08-11T12:52:33.000Z</time><ele>1554</ele></trkpt><trkpt lat="46.02649" lon="9.406413"><time>2023-08-11T12:52:37.000Z</time><ele>1555</ele></trkpt><trkpt lat="46.026544" lon="9.406428"><time>2023-08-11T12:52:44.000Z</time><ele>1556</ele></trkpt><trkpt lat="46.026592" lon="9.406421"><time>2023-08-11T12:52:50.000Z</time><ele>1554</ele></trkpt><trkpt lat="46.026647" lon="9.406423"><time>2023-08-11T12:52:56.000Z</time><ele>1553</ele></trkpt><trkpt lat="46.026694" lon="9.406419"><time>2023-08-11T12:53:01.000Z</time><ele>1552</ele></trkpt><trkpt lat="46.026739" lon="9.40641"><time>2023-08-11T12:53:08.000Z</time><ele>1550</ele></trkpt><trkpt lat="46.026785" lon="9.406416"><time>2023-08-11T12:53:14.000Z</time><ele>1550</ele></trkpt><trkpt lat="46.026829" lon="9.406433"><time>2023-08-11T12:53:20.000Z</time><ele>1549</ele></trkpt><trkpt lat="46.02688" lon="9.406441"><time>2023-08-11T12:53:26.000Z</time><ele>1549</ele></trkpt><trkpt lat="46.026934" lon="9.40645"><time>2023-08-11T12:53:33.000Z</time><ele>1547</ele></trkpt><trkpt lat="46.026972" lon="9.406398"><time>2023-08-11T12:53:38.000Z</time><ele>1545</ele></trkpt><trkpt lat="46.027003" lon="9.406338"><time>2023-08-11T12:53:43.000Z</time><ele>1543</ele></trkpt><trkpt lat="46.027042" lon="9.406273"><time>2023-08-11T12:53:49.000Z</time><ele>1541</ele></trkpt><trkpt lat="46.027076" lon="9.406229"><time>2023-08-11T12:53:54.000Z</time><ele>1541</ele></trkpt><trkpt lat="46.027093" lon="9.406162"><time>2023-08-11T12:53:59.000Z</time><ele>1540</ele></trkpt><trkpt lat="46.027125" lon="9.406105"><time>2023-08-11T12:54:03.000Z</time><ele>1540</ele></trkpt><trkpt lat="46.027153" lon="9.40604"><time>2023-08-11T12:54:08.000Z</time><ele>1541</ele></trkpt><trkpt lat="46.027183" lon="9.405983"><time>2023-08-11T12:54:12.000Z</time><ele>1541</ele></trkpt><trkpt lat="46.027216" lon="9.405932"><time>2023-08-11T12:54:16.000Z</time><ele>1541</ele></trkpt><trkpt lat="46.027251" lon="9.40589"><time>2023-08-11T12:54:20.000Z</time><ele>1542</ele></trkpt><trkpt lat="46.027298" lon="9.405863"><time>2023-08-11T12:54:25.000Z</time><ele>1542</ele></trkpt><trkpt lat="46.027339" lon="9.405813"><time>2023-08-11T12:54:30.000Z</time><ele>1543</ele></trkpt><trkpt lat="46.027369" lon="9.405739"><time>2023-08-11T12:54:35.000Z</time><ele>1544</ele></trkpt><trkpt lat="46.027388" lon="9.405668"><time>2023-08-11T12:54:40.000Z</time><ele>1545</ele></trkpt><trkpt lat="46.027414" lon="9.405597"><time>2023-08-11T12:54:45.000Z</time><ele>1545</ele></trkpt><trkpt lat="46.027427" lon="9.405524"><time>2023-08-11T12:54:51.000Z</time><ele>1543</ele></trkpt><trkpt lat="46.027442" lon="9.405462"><time>2023-08-11T12:54:56.000Z</time><ele>1545</ele></trkpt><trkpt lat="46.02746" lon="9.405395"><time>2023-08-11T12:55:01.000Z</time><ele>1546</ele></trkpt><trkpt lat="46.02747" lon="9.405329"><time>2023-08-11T12:55:06.000Z</time><ele>1547</ele></trkpt><trkpt lat="46.027508" lon="9.405278"><time>2023-08-11T12:55:10.000Z</time><ele>1546</ele></trkpt><trkpt lat="46.027533" lon="9.405211"><time>2023-08-11T12:55:15.000Z</time><ele>1546</ele></trkpt><trkpt lat="46.027565" lon="9.405157"><time>2023-08-11T12:55:20.000Z</time><ele>1546</ele></trkpt><trkpt lat="46.027593" lon="9.405088"><time>2023-08-11T12:55:25.000Z</time><ele>1545</ele></trkpt><trkpt lat="46.027612" lon="9.405029"><time>2023-08-11T12:55:29.000Z</time><ele>1545</ele></trkpt><trkpt lat="46.027637" lon="9.404963"><time>2023-08-11T12:55:34.000Z</time><ele>1546</ele></trkpt><trkpt lat="46.027673" lon="9.404905"><time>2023-08-11T12:55:39.000Z</time><ele>1546</ele></trkpt><trkpt lat="46.027698" lon="9.404843"><time>2023-08-11T12:55:44.000Z</time><ele>1546</ele></trkpt><trkpt lat="46.027712" lon="9.404775"><time>2023-08-11T12:55:48.000Z</time><ele>1545</ele></trkpt><trkpt lat="46.027723" lon="9.404698"><time>2023-08-11T12:55:53.000Z</time><ele>1545</ele></trkpt><trkpt lat="46.027729" lon="9.404629"><time>2023-08-11T12:55:58.000Z</time><ele>1545</ele></trkpt><trkpt lat="46.02772" lon="9.404559"><time>2023-08-11T12:56:04.000Z</time><ele>1545</ele></trkpt><trkpt lat="46.027711" lon="9.404494"><time>2023-08-11T12:56:09.000Z</time><ele>1543</ele></trkpt><trkpt lat="46.027695" lon="9.40443"><time>2023-08-11T12:56:14.000Z</time><ele>1544</ele></trkpt><trkpt lat="46.027681" lon="9.404349"><time>2023-08-11T12:56:20.000Z</time><ele>1543</ele></trkpt><trkpt lat="46.027677" lon="9.404278"><time>2023-08-11T12:56:25.000Z</time><ele>1543</ele></trkpt><trkpt lat="46.027667" lon="9.404211"><time>2023-08-11T12:56:29.000Z</time><ele>1543</ele></trkpt><trkpt lat="46.02766" lon="9.404144"><time>2023-08-11T12:56:33.000Z</time><ele>1543</ele></trkpt><trkpt lat="46.02766" lon="9.404069"><time>2023-08-11T12:56:38.000Z</time><ele>1543</ele></trkpt><trkpt lat="46.027663" lon="9.404002"><time>2023-08-11T12:56:42.000Z</time><ele>1543</ele></trkpt><trkpt lat="46.027668" lon="9.403931"><time>2023-08-11T12:56:46.000Z</time><ele>1543</ele></trkpt><trkpt lat="46.027685" lon="9.403856"><time>2023-08-11T12:56:52.000Z</time><ele>1542</ele></trkpt><trkpt lat="46.027695" lon="9.403787"><time>2023-08-11T12:56:57.000Z</time><ele>1542</ele></trkpt><trkpt lat="46.027715" lon="9.403725"><time>2023-08-11T12:57:02.000Z</time><ele>1540</ele></trkpt><trkpt lat="46.027714" lon="9.403652"><time>2023-08-11T12:57:08.000Z</time><ele>1538</ele></trkpt><trkpt lat="46.027712" lon="9.403583"><time>2023-08-11T12:57:13.000Z</time><ele>1538</ele></trkpt><trkpt lat="46.0277" lon="9.403514"><time>2023-08-11T12:57:18.000Z</time><ele>1538</ele></trkpt><trkpt lat="46.027696" lon="9.403446"><time>2023-08-11T12:57:23.000Z</time><ele>1537</ele></trkpt><trkpt lat="46.027693" lon="9.403375"><time>2023-08-11T12:57:29.000Z</time><ele>1536</ele></trkpt><trkpt lat="46.027686" lon="9.403303"><time>2023-08-11T12:57:34.000Z</time><ele>1535</ele></trkpt><trkpt lat="46.027675" lon="9.403224"><time>2023-08-11T12:57:39.000Z</time><ele>1535</ele></trkpt><trkpt lat="46.02767" lon="9.40314"><time>2023-08-11T12:57:44.000Z</time><ele>1535</ele></trkpt><trkpt lat="46.027675" lon="9.403071"><time>2023-08-11T12:57:49.000Z</time><ele>1534</ele></trkpt><trkpt lat="46.027677" lon="9.402999"><time>2023-08-11T12:57:54.000Z</time><ele>1533</ele></trkpt><trkpt lat="46.027674" lon="9.402933"><time>2023-08-11T12:58:00.000Z</time><ele>1533</ele></trkpt><trkpt lat="46.027687" lon="9.402865"><time>2023-08-11T12:58:07.000Z</time><ele>1532</ele></trkpt><trkpt lat="46.027687" lon="9.402798"><time>2023-08-11T12:58:15.000Z</time><ele>1531</ele></trkpt><trkpt lat="46.027691" lon="9.402725"><time>2023-08-11T12:58:20.000Z</time><ele>1532</ele></trkpt><trkpt lat="46.027688" lon="9.402657"><time>2023-08-11T12:58:24.000Z</time><ele>1532</ele></trkpt><trkpt lat="46.027678" lon="9.402594"><time>2023-08-11T12:58:29.000Z</time><ele>1532</ele></trkpt><trkpt lat="46.027663" lon="9.402521"><time>2023-08-11T12:58:35.000Z</time><ele>1531</ele></trkpt><trkpt lat="46.02765" lon="9.402446"><time>2023-08-11T12:58:41.000Z</time><ele>1530</ele></trkpt><trkpt lat="46.027642" lon="9.402383"><time>2023-08-11T12:58:47.000Z</time><ele>1530</ele></trkpt><trkpt lat="46.02764" lon="9.402308"><time>2023-08-11T12:58:53.000Z</time><ele>1531</ele></trkpt><trkpt lat="46.02764" lon="9.402233"><time>2023-08-11T12:58:59.000Z</time><ele>1530</ele></trkpt><trkpt lat="46.02764" lon="9.402156"><time>2023-08-11T12:59:05.000Z</time><ele>1530</ele></trkpt><trkpt lat="46.027634" lon="9.402091"><time>2023-08-11T12:59:11.000Z</time><ele>1529</ele></trkpt><trkpt lat="46.027633" lon="9.402023"><time>2023-08-11T12:59:16.000Z</time><ele>1529</ele></trkpt><trkpt lat="46.027637" lon="9.401949"><time>2023-08-11T12:59:21.000Z</time><ele>1531</ele></trkpt><trkpt lat="46.027631" lon="9.401877"><time>2023-08-11T12:59:27.000Z</time><ele>1531</ele></trkpt><trkpt lat="46.02759" lon="9.401836"><time>2023-08-11T12:59:32.000Z</time><ele>1532</ele></trkpt><trkpt lat="46.027561" lon="9.401786"><time>2023-08-11T12:59:37.000Z</time><ele>1530</ele></trkpt><trkpt lat="46.02753" lon="9.401726"><time>2023-08-11T12:59:44.000Z</time><ele>1530</ele></trkpt><trkpt lat="46.027571" lon="9.401672"><time>2023-08-11T13:00:18.000Z</time><ele>1526</ele></trkpt><trkpt lat="46.027571" lon="9.401672"><time>2023-08-11T13:00:18.001Z</time><ele>1526</ele></trkpt></trkseg></trk></gpx>